»·PEaware :: CKS3130 KDFW-KMEM

CKS3130 :: KDFW-KMEM

FLIGHT INFORMATION

Flight Status: Arrived
Operator:
Kalitta Air
More flights by this operator :: More flights under this callsign
Pilot: Drew L. (13237)
Aircraft: BOEING 747-400 (WINGLETS)
(B744)
More flights by this aircraft type
Origin: KDFW Dallas-Ft Worth Intl
United States
Destination: KMEM Memphis Intl
United States
More flights between these airports :: More routes between these airports
Route: FORCK2 FORCK ELD HOBRK3
File this flight plan on PilotEdge
Remarks:
Altitude:
(Current/Filed)
35,000ft
Speed:
(Current/Filed)
0kts
Departed: 09-Oct-18 08:39 AM
Arrived: 09-Oct-18 09:40 AM
Distance/Time
Traveled:
374nm/1:01
Distance/Time
To Go:
Arrived

Flight Plot

Page will automatically refresh every two minutes.

Flight plan parsing failed; only flown route is shown


Map Options




Map Legend


Flown Route
Filed Route
Departure Airport
Arrival Airport
Navaid (VOR, NDB)
Fix

Horizontal Profiles

Position Reports

Time Latitude Longitude Heading Altitude Ground
Speed
09-Oct-18 08:21 32.914952 -97.019709 45 620ft 0kts
09-Oct-18 08:22 32.914952 -97.019709 45 620ft 0kts
09-Oct-18 08:23 32.914952 -97.019709 45 620ft 0kts
09-Oct-18 08:24 32.914952 -97.019709 45 620ft 0kts
09-Oct-18 08:25 32.914952 -97.019709 45 620ft 0kts
09-Oct-18 08:26 32.914706 -97.020001 45 620ft 2kts
09-Oct-18 08:27 32.914231 -97.020568 45 620ft 0kts
09-Oct-18 08:28 32.914231 -97.020567 45 620ft 0kts
09-Oct-18 08:29 32.914232 -97.020567 45 620ft 0kts
09-Oct-18 08:30 32.914294 -97.020184 126 620ft 9kts
09-Oct-18 08:31 32.911135 -97.022876 225 620ft 6kts
09-Oct-18 08:32 32.910221 -97.024137 242 620ft 9kts
09-Oct-18 08:33 32.908525 -97.027868 180 620ft 21kts
09-Oct-18 08:34 32.899145 -97.027922 180 620ft 36kts
09-Oct-18 08:35 32.888828 -97.027957 181 620ft 35kts
09-Oct-18 08:36 32.886018 -97.035843 266 620ft 33kts
09-Oct-18 08:37 32.886050 -97.045963 270 620ft 34kts
09-Oct-18 08:38 32.886313 -97.053540 287 620ft 16kts
09-Oct-18 08:39 32.886916 -97.054762 2 620ft 0kts
09-Oct-18 08:40 32.887493 -97.054740 1 620ft 19kts
09-Oct-18 08:41 32.926691 -97.054218 7 2433ft 190kts
09-Oct-18 08:42 32.982428 -97.023520 33 3699ft 261kts
09-Oct-18 08:43 33.017475 -96.948981 91 6064ft 275kts
09-Oct-18 08:44 33.006592 -96.857829 113 8882ft 284kts
09-Oct-18 08:45 32.971841 -96.766919 121 10602ft 336kts
09-Oct-18 08:46 32.926187 -96.654089 119 11959ft 405kts
09-Oct-18 08:47 32.876367 -96.529698 120 14904ft 425kts
09-Oct-18 08:48 32.824014 -96.400202 120 17996ft 442kts
09-Oct-18 08:49 32.804343 -96.252443 89 20602ft 479kts
09-Oct-18 08:50 32.822299 -96.092526 87 23005ft 496kts
09-Oct-18 08:51 32.839073 -95.927250 87 25206ft 510kts
09-Oct-18 08:52 32.856113 -95.757570 88 27054ft 523kts
09-Oct-18 08:53 32.872979 -95.585503 88 29262ft 519kts
09-Oct-18 08:54 32.889468 -95.415645 88 31296ft 517kts
09-Oct-18 08:55 32.906362 -95.246477 88 32967ft 515kts
09-Oct-18 08:56 32.922596 -95.077019 88 34505ft 512kts
09-Oct-18 08:57 32.938513 -94.908023 88 34913ft 515kts
09-Oct-18 08:58 32.954247 -94.738507 88 34911ft 515kts
09-Oct-18 08:59 32.970090 -94.568569 88 34915ft 515kts
09-Oct-18 09:00 32.985159 -94.399112 89 34917ft 515kts
09-Oct-18 09:01 33.002614 -94.229624 84 34923ft 518kts
09-Oct-18 09:02 33.037764 -94.032607 83 34922ft 521kts
09-Oct-18 09:03 33.062160 -93.891618 82 34924ft 522kts
09-Oct-18 09:04 33.091890 -93.722418 82 34921ft 522kts
09-Oct-18 09:05 33.121022 -93.552779 82 34930ft 522kts
09-Oct-18 09:06 33.149900 -93.382749 82 34934ft 522kts
09-Oct-18 09:07 33.178478 -93.212989 83 34944ft 523kts
09-Oct-18 09:08 33.207128 -93.043161 82 34938ft 523kts
09-Oct-18 09:09 33.235178 -92.872443 83 34939ft 523kts
09-Oct-18 09:10 33.278785 -92.707216 62 34951ft 531kts
09-Oct-18 09:11 33.362241 -92.560258 57 34939ft 536kts
09-Oct-18 09:12 33.447237 -92.413855 57 34940ft 535kts
09-Oct-18 09:13 33.532068 -92.267794 57 34945ft 534kts
09-Oct-18 09:14 33.616393 -92.121141 57 34955ft 534kts
09-Oct-18 09:15 33.700631 -91.973959 57 34966ft 533kts
09-Oct-18 09:16 33.784474 -91.827422 57 34969ft 533kts
09-Oct-18 09:17 33.864701 -91.685795 57 34971ft 533kts
09-Oct-18 09:18 33.950404 -91.540510 51 33105ft 526kts
09-Oct-18 09:19 34.045881 -91.411193 51 30971ft 505kts
09-Oct-18 09:20 34.136658 -91.285505 51 28826ft 488kts
09-Oct-18 09:21 34.224095 -91.164297 51 26852ft 468kts
09-Oct-18 09:22 34.308179 -91.047941 50 24858ft 452kts
09-Oct-18 09:23 34.389339 -90.935140 50 22890ft 436kts
09-Oct-18 09:24 34.467350 -90.825996 50 20951ft 422kts
09-Oct-18 09:25 34.541093 -90.720449 52 19489ft 398kts
09-Oct-18 09:26 34.610686 -90.618420 52 17685ft 386kts
09-Oct-18 09:27 34.675815 -90.517526 54 15952ft 374kts
09-Oct-18 09:28 34.738871 -90.418895 55 14208ft 364kts
09-Oct-18 09:29 34.798759 -90.324850 56 13281ft 329kts
09-Oct-18 09:30 34.861945 -90.225574 56 11671ft 312kts
09-Oct-18 09:31 34.905201 -90.157230 57 10732ft 292kts
09-Oct-18 09:32 34.974361 -90.108672 12 9266ft 300kts
09-Oct-18 09:33 35.056728 -90.109966 2 7943ft 292kts
09-Oct-18 09:34 35.135226 -90.109179 1 6877ft 264kts
09-Oct-18 09:35 35.206881 -90.107482 22 5296ft 252kts
09-Oct-18 09:36 35.217041 -90.051399 130 4033ft 168kts
09-Oct-18 09:37 35.182692 -90.016913 142 2687ft 154kts
09-Oct-18 09:38 35.151297 -89.987495 143 2029ft 144kts
09-Oct-18 09:39 35.112898 -89.977147 177 1480ft 148kts
09-Oct-18 09:40 35.071918 -89.976545 176 734ft 156kts
09-Oct-18 09:41 35.035334 -89.975752 178 354ft 75kts
09-Oct-18 09:42 35.032086 -89.975678 179 354ft 0kts

Navigation Log

Ident Type
Flight plan parsing failed, navigation log unavailable